Time;durP1;ratioP1;P1;durP2;ratioP2;P2;SDS_P1;SDS_P2;PMS_P1;PMS_P2;Temp;Humidity;BMP_temperature;BMP_pressure;BME280_temperature;BME280_humidity;BME280_pressure;Samples;Min_cycle;Max_cycle;Signal;HPM_P1;HPM_P2
2021/04/19 00:01:10;;;;;;;;;;;;;;;;;;4938815;29;19957;-55
2021/04/19 00:03:35;;;;;;;;;;;;;;;;;;4937882;29;20256;-53
2021/04/19 00:06:00;;;;;;;;;;;;;;;;;;4938811;29;20069;-54
2021/04/19 00:08:26;;;;;;;;;;;;;;;;;;4940024;29;19911;-54
2021/04/19 00:10:51;;;;;;;;;;;;;;;;;;4937562;29;19938;-51
2021/04/19 00:13:16;;;;;;;;;;;;;;;;;;4937388;29;19917;-55
2021/04/19 00:15:41;;;;;;;;;;;;;;;;;;4938491;29;20013;-55
2021/04/19 00:18:06;;;;;;;;;;;;;;;;;;4937440;29;19918;-54
2021/04/19 00:20:32;;;;;;;;;;;;;;;;;;4938331;29;19911;-54
2021/04/19 00:22:57;;;;;;;;;;;;;;;;;;4938504;29;19918;-54
2021/04/19 00:25:22;;;;;;;;;;;;;;;;;;4936718;29;20062;-54
2021/04/19 00:27:48;;;;;;;;;;;;;;;;;;4938223;29;19966;-55
2021/04/19 00:30:13;;;;;;;;;;;;;;;;;;4938218;29;20001;-52
2021/04/19 00:32:38;;;;;;;;;;;;;;;;;;4936701;29;19915;-52
2021/04/19 00:35:03;;;;;;;;;;;;;;;;;;4938092;29;19922;-52
2021/04/19 00:37:28;;;;;;;;;;;;;;;;;;4936643;29;19933;-52
2021/04/19 00:39:54;;;;;;;;;;;;;;;;;;4936707;29;19915;-53
2021/04/19 00:42:19;;;;;;;;;;;;;;;;;;4936833;29;20061;-53
2021/04/19 00:44:44;;;;;;;;;;;;;;;;;;4937455;29;19922;-53
2021/04/19 00:47:09;;;;;;;;;;;;;;;;;;4937929;29;20279;-54
2021/04/19 00:49:35;;;;;;;;;;;;;;;;;;4936454;29;19986;-54
2021/04/19 00:52:00;;;;;;;;;;;;;;;;;;4936704;29;20013;-54
2021/04/19 00:54:25;;;;;;;;;;;;;;;;;;4937577;29;20021;-55
2021/04/19 00:56:50;;;;;;;;;;;;;;;;;;4936387;29;19970;-54
2021/04/19 00:59:16;;;;;;;;;;;;;;;;;;4920638;29;19917;-52
2021/04/19 01:01:41;;;;;;;;;;;;;;;;;;4937539;29;19926;-53
2021/04/19 01:04:06;;;;;;;;;;;;;;;;;;4937761;29;19919;-55
2021/04/19 01:06:32;;;;;;;;;;;;;;;;;;4934842;29;19966;-55
2021/04/19 01:08:57;;;;;;;;;;;;;;;;;;4937642;29;19922;-55
2021/04/19 01:11:23;;;;;;;;;;;;;;;;;;4937451;29;20435;-53
2021/04/19 01:13:48;;;;;;;;;;;;;;;;;;4935772;29;19910;-51
2021/04/19 01:16:15;;;;;;;;;;;;;;;;;;4936244;29;19914;-54
2021/04/19 01:18:42;;;;;;;;;;;;;;;;;;4935899;29;20276;-53
2021/04/19 01:21:07;;;;;;;;;;;;;;;;;;4937496;29;19965;-53
2021/04/19 01:23:32;;;;;;;;;;;;;;;;;;4937051;29;20366;-53
2021/04/19 01:25:59;;;;;;;;;;;;;;;;;;4937273;29;19934;-56
2021/04/19 01:28:27;;;;;;;;;;;;;;;;;;4935847;29;19950;-53
2021/04/19 01:30:52;;;;;;;;;;;;;;;;;;4936084;29;19970;-52
2021/04/19 01:33:19;;;;;;;;;;;;;;;;;;4936014;29;19911;-54
2021/04/19 01:35:44;;;;;;;;;;;;;;;;;;4919912;29;20399;-51
2021/04/19 01:38:10;;;;;;;;;;;;;;;;;;4937176;29;20010;-54
2021/04/19 01:40:36;;;;;;;;;;;;;;;;;;4935637;29;20014;-53
2021/04/19 01:43:01;;;;;;;;;;;;;;;;;;4936788;29;19966;-54
2021/04/19 01:45:29;;;;;;;;;;;;;;;;;;4935672;29;19919;-55
2021/04/19 01:47:54;;;;;;;;;;;;;;;;;;4936975;29;19918;-52
2021/04/19 01:50:19;;;;;;;;;;;;;;;;;;4936779;29;19906;-53
2021/04/19 01:52:46;;;;;;;;;;;;;;;;;;4935182;29;19918;-55
2021/04/19 01:55:11;;;;;;;;;;;;;;;;;;4936702;29;20278;-51
2021/04/19 01:57:41;;;;;;;;;;;;;;;;;;4934974;29;19988;-51
2021/04/19 02:00:06;;;;;;;;;;;;;;;;;;4935193;29;19953;-55
2021/04/19 02:02:32;;;;;;;;;;;;;;;;;;4936312;29;19946;-51
2021/04/19 02:04:58;;;;;;;;;;;;;;;;;;4934918;29;20287;-52
2021/04/19 02:07:23;;;;;;;;;;;;;;;;;;4936683;29;20275;-53
2021/04/19 02:09:49;;;;;;;;;;;;;;;;;;4936189;29;20382;-52
2021/04/19 02:12:16;;;;;;;;;;;;;;;;;;4935039;29;19918;-53
2021/04/19 02:14:41;;;;;;;;;;;;;;;;;;4934958;29;19916;-52
2021/04/19 02:17:08;;;;;;;;;;;;;;;;;;4934797;29;19933;-54
2021/04/19 02:19:33;;;;;;;;;;;;;;;;;;4934858;29;19911;-56
2021/04/19 02:21:59;;;;;;;;;;;;;;;;;;4934931;29;19945;-54
2021/04/19 02:24:24;;;;;;;;;;;;;;;;;;4934857;29;19921;-54
2021/04/19 02:26:49;;;;;;;;;;;;;;;;;;4935771;29;19918;-54
2021/04/19 02:29:14;;;;;;;;;;;;;;;;;;4936137;29;19911;-53
2021/04/19 02:31:40;;;;;;;;;;;;;;;;;;4934575;29;19926;-52
2021/04/19 02:34:07;;;;;;;;;;;;;;;;;;4934790;29;19911;-54
2021/04/19 02:36:32;;;;;;;;;;;;;;;;;;4934796;29;19938;-52
2021/04/19 02:38:58;;;;;;;;;;;;;;;;;;4934340;29;19911;-54
2021/04/19 02:41:23;;;;;;;;;;;;;;;;;;4934562;29;20283;-52
2021/04/19 02:43:49;;;;;;;;;;;;;;;;;;4934459;29;20363;-53
2021/04/19 02:46:19;;;;;;;;;;;;;;;;;;4934815;29;20379;-56
2021/04/19 02:48:46;;;;;;;;;;;;;;;;;;4934370;29;19911;-54
2021/04/19 02:51:20;;;;;;;;;;;;;;;;;;4935870;29;19937;-53
2021/04/19 02:53:47;;;;;;;;;;;;;;;;;;4935319;29;20009;-51
2021/04/19 02:56:12;;;;;;;;;;;;;;;;;;4935625;29;20005;-55
2021/04/19 02:58:38;;;;;;;;;;;;;;;;;;4934271;29;20384;-55
2021/04/19 03:01:04;;;;;;;;;;;;;;;;;;4935659;29;19910;-53
2021/04/19 03:03:29;;;;;;;;;;;;;;;;;;4934292;29;19911;-54
2021/04/19 03:06:00;;;;;;;;;;;;;;;;;;4934087;29;19918;-54
2021/04/19 03:08:26;;;;;;;;;;;;;;;;;;4934104;29;20427;-54
2021/04/19 03:10:51;;;;;;;;;;;;;;;;;;4918352;29;19917;-55
2021/04/19 03:13:16;;;;;;;;;;;;;;;;;;4934281;29;19918;-55
2021/04/19 03:15:42;;;;;;;;;;;;;;;;;;4934067;29;20326;-53
2021/04/19 03:18:09;;;;;;;;;;;;;;;;;;4934117;29;19911;-53
2021/04/19 03:20:41;;;;;;;;;;;;;;;;;;4934038;29;19915;-55
2021/04/19 03:23:12;;;;;;;;;;;;;;;;;;4934229;29;19949;-54
2021/04/19 03:25:49;;;;;;;;;;;;;;;;;;4933996;29;20385;-54
2021/04/19 03:28:16;;;;;;;;;;;;;;;;;;4935683;29;19911;-53
2021/04/19 03:30:41;;;;;;;;;;;;;;;;;;4933616;29;19910;-53
2021/04/19 03:33:11;;;;;;;;;;;;;;;;;;4934078;29;19914;-53
2021/04/19 03:35:38;;;;;;;;;;;;;;;;;;4933948;29;19933;-56
2021/04/19 03:38:08;;;;;;;;;;;;;;;;;;4935607;29;19910;-54
2021/04/19 03:40:34;;;;;;;;;;;;;;;;;;4933903;29;19927;-54
2021/04/19 03:43:02;;;;;;;;;;;;;;;;;;4933715;29;19922;-51
2021/04/19 03:45:30;;;;;;;;;;;;;;;;;;4934029;29;20034;-55
2021/04/19 03:48:14;;;;;;;;;;;;;;;;;;4935129;29;19918;-53
2021/04/19 03:50:45;;;;;;;;;;;;;;;;;;4934100;29;19937;-51
2021/04/19 03:53:11;;;;;;;;;;;;;;;;;;4935026;29;19914;-50
2021/04/19 03:55:36;;;;;;;;;;;;;;;;;;4935684;29;19950;-52
2021/04/19 03:58:01;;;;;;;;;;;;;;;;;;4933579;29;19907;-52
2021/04/19 04:00:37;;;;;;;;;;;;;;;;;;4933931;29;19978;-52
2021/04/19 04:03:20;;;;;;;;;;;;;;;;;;4936275;29;19939;-53
2021/04/19 04:06:04;;;;;;;;;;;;;;;;;;4934257;29;20394;-58
2021/04/19 04:08:33;;;;;;;;;;;;;;;;;;4933925;29;19915;-54
2021/04/19 04:10:58;;;;;;;;;;;;;;;;;;4933295;29;19915;-54
2021/04/19 04:13:24;;;;;;;;;;;;;;;;;;4933784;29;19922;-57
2021/04/19 04:15:50;;;;;;;;;;;;;;;;;;4933503;29;20422;-54
2021/04/19 04:18:16;;;;;;;;;;;;;;;;;;4933659;29;19911;-54
2021/04/19 04:20:44;;;;;;;;;;;;;;;;;;4933678;29;20067;-55
2021/04/19 04:23:13;;;;;;;;;;;;;;;;;;4918265;29;19978;-53
2021/04/19 04:25:39;;;;;;;;;;;;;;;;;;4933316;29;19958;-52
2021/04/19 04:28:08;;;;;;;;;;;;;;;;;;4933347;29;20001;-51
2021/04/19 04:30:42;;;;;;;;;;;;;;;;;;4933543;29;20363;-52
2021/04/19 04:33:21;;;;;;;;;;;;;;;;;;4933680;29;19919;-53
2021/04/19 04:35:53;;;;;;;;;;;;;;;;;;4918269;29;19966;-55
2021/04/19 04:38:29;;;;;;;;;;;;;;;;;;4934753;29;19918;-54
2021/04/19 04:40:56;;;;;;;;;;;;;;;;;;4935798;29;19927;-53
2021/04/19 04:43:21;;;;;;;;;;;;;;;;;;4938029;29;19937;-53
2021/04/19 04:45:46;;;;;;;;;;;;;;;;;;4920739;29;19921;-55
2021/04/19 04:48:11;;;;;;;;;;;;;;;;;;4936531;29;19915;-51
2021/04/19 04:50:37;;;;;;;;;;;;;;;;;;4937785;29;19965;-53
2021/04/19 04:53:02;;;;;;;;;;;;;;;;;;4936877;29;19910;-54
2021/04/19 04:55:27;;;;;;;;;;;;;;;;;;4937842;29;20037;-53
2021/04/19 04:57:52;;;;;;;;;;;;;;;;;;4937589;29;19958;-54
2021/04/19 05:00:18;;;;;;;;;;;;;;;;;;4936628;29;19917;-54
2021/04/19 05:02:43;;;;;;;;;;;;;;;;;;4937955;29;19985;-55
2021/04/19 05:05:08;;;;;;;;;;;;;;;;;;4937152;29;19918;-54
2021/04/19 05:07:33;;;;;;;;;;;;;;;;;;4937855;29;19966;-55
2021/04/19 05:09:59;;;;;;;;;;;;;;;;;;4937226;29;19954;-55
2021/04/19 05:12:24;;;;;;;;;;;;;;;;;;4937646;29;19918;-54
2021/04/19 05:14:49;;;;;;;;;;;;;;;;;;4936519;29;20334;-55
2021/04/19 05:17:14;;;;;;;;;;;;;;;;;;4937394;29;19910;-56
2021/04/19 05:19:40;;;;;;;;;;;;;;;;;;4936138;29;19917;-51
2021/04/19 05:22:05;;;;;;;;;;;;;;;;;;4936979;29;20339;-54
2021/04/19 05:24:31;;;;;;;;;;;;;;;;;;4937431;29;19970;-54
2021/04/19 05:26:56;;;;;;;;;;;;;;;;;;4936824;29;20347;-55
2021/04/19 05:29:21;;;;;;;;;;;;;;;;;;4936167;29;20394;-52
2021/04/19 05:31:46;;;;;;;;;;;;;;;;;;4937190;29;19922;-55
2021/04/19 05:34:13;;;;;;;;;;;;;;;;;;4935571;29;20440;-54
2021/04/19 05:36:38;;;;;;;;;;;;;;;;;;4936883;29;19989;-54
2021/04/19 05:39:03;;;;;;;;;;;;;;;;;;4936911;29;19961;-51
2021/04/19 05:41:29;;;;;;;;;;;;;;;;;;4937082;29;19911;-52
2021/04/19 05:43:54;;;;;;;;;;;;;;;;;;4936592;29;20009;-55
2021/04/19 05:46:19;;;;;;;;;;;;;;;;;;4935432;29;20025;-54
2021/04/19 05:48:44;;;;;;;;;;;;;;;;;;4935620;29;19910;-55
2021/04/19 05:51:10;;;;;;;;;;;;;;;;;;4937343;29;19965;-53
2021/04/19 05:53:35;;;;;;;;;;;;;;;;;;4936436;29;20279;-54
2021/04/19 05:56:00;;;;;;;;;;;;;;;;;;4936566;29;20001;-54
2021/04/19 05:58:25;;;;;;;;;;;;;;;;;;4935335;29;19918;-54
2021/04/19 06:00:51;;;;;;;;;;;;;;;;;;4936522;29;19959;-55
2021/04/19 06:03:16;;;;;;;;;;;;;;;;;;4936448;29;19970;-53
2021/04/19 06:05:41;;;;;;;;;;;;;;;;;;4934862;29;20479;-55
2021/04/19 06:08:07;;;;;;;;;;;;;;;;;;4936129;29;19958;-53
2021/04/19 06:10:35;;;;;;;;;;;;;;;;;;4936524;29;20401;-51
2021/04/19 06:13:08;;;;;;;;;;;;;;;;;;4936027;29;19917;-53
2021/04/19 06:15:33;;;;;;;;;;;;;;;;;;4936174;29;19910;-51
2021/04/19 06:17:59;;;;;;;;;;;;;;;;;;4934864;29;20017;-54
2021/04/19 06:20:24;;;;;;;;;;;;;;;;;;4936116;29;20062;-54
2021/04/19 06:22:49;;;;;;;;;;;;;;;;;;4936371;29;19933;-54
2021/04/19 06:25:14;;;;;;;;;;;;;;;;;;4935859;29;19961;-54
2021/04/19 06:27:40;;;;;;;;;;;;;;;;;;4934792;29;20367;-51
2021/04/19 06:30:05;;;;;;;;;;;;;;;;;;4934595;29;20064;-54
2021/04/19 06:32:30;;;;;;;;;;;;;;;;;;4934757;29;19993;-54
2021/04/19 06:34:56;;;;;;;;;;;;;;;;;;4936106;29;20359;-56
2021/04/19 06:37:21;;;;;;;;;;;;;;;;;;4935668;29;19906;-54
2021/04/19 06:39:46;;;;;;;;;;;;;;;;;;4935535;29;19927;-54
2021/04/19 06:42:11;;;;;;;;;;;;;;;;;;4934298;29;20020;-53
2021/04/19 06:44:37;;;;;;;;;;;;;;;;;;4934305;29;19961;-53
2021/04/19 06:47:02;;;;;;;;;;;;;;;;;;4933999;29;19919;-53
2021/04/19 06:49:27;;;;;;;;;;;;;;;;;;4933940;29;19917;-55
2021/04/19 06:51:52;;;;;;;;;;;;;;;;;;4934265;29;19910;-53
2021/04/19 06:54:18;;;;;;;;;;;;;;;;;;4924530;29;19910;-53
2021/04/19 06:56:43;;;;;;;;;;;;;;;;;;4934276;29;19962;-53
2021/04/19 06:59:08;;;;;;;;;;;;;;;;;;4933698;29;19910;-51
2021/04/19 07:01:33;;;;;;;;;;;;;;;;;;4933834;29;19923;-55
2021/04/19 07:03:59;;;;;;;;;;;;;;;;;;4934201;29;19926;-54
2021/04/19 07:06:27;;;;;;;;;;;;;;;;;;4934795;29;19918;-53
2021/04/19 07:08:52;;;;;;;;;;;;;;;;;;4917475;29;20355;-54
2021/04/19 07:11:17;;;;;;;;;;;;;;;;;;4933948;29;19911;-54
2021/04/19 07:13:43;;;;;;;;;;;;;;;;;;4927340;29;19922;-53
2021/04/19 07:16:08;;;;;;;;;;;;;;;;;;4921917;29;19911;-55
2021/04/19 07:18:33;;;;;;;;;;;;;;;;;;4949638;29;19933;-51
2021/04/19 07:20:58;;;;;;;;;;;;;;;;;;4934881;29;19915;-53
2021/04/19 07:23:23;;;;;;;;;;;;;;;;;;4935740;29;20008;-54
2021/04/19 07:25:49;;;;;;;;;;;;;;;;;;4933726;29;19926;-53
2021/04/19 07:28:15;;;;;;;;;;;;;;;;;;4933299;29;20347;-53
2021/04/19 07:30:40;;;;;;;;;;;;;;;;;;4935229;29;19911;-53
2021/04/19 07:33:05;;;;;;;;;;;;;;;;;;4933260;29;19981;-52
2021/04/19 07:35:30;;;;;;;;;;;;;;;;;;4935180;29;19926;-53
2021/04/19 07:37:55;;;;;;;;;;;;;;;;;;4934897;29;19986;-52
2021/04/19 07:40:21;;;;;;;;;;;;;;;;;;4934708;29;19993;-51
2021/04/19 07:42:46;;;;;;;;;;;;;;;;;;4934208;29;19911;-54
2021/04/19 07:45:12;;;;;;;;;;;;;;;;;;4934616;29;19966;-55
2021/04/19 07:47:43;;;;;;;;;;;;;;;;;;4934734;29;19965;-55
2021/04/19 07:50:08;;;;;;;;;;;;;;;;;;4934943;29;19944;-55
2021/04/19 07:52:35;;;;;;;;;;;;;;;;;;4934437;29;20024;-54
2021/04/19 07:55:01;;;;;;;;;;;;;;;;;;4934802;29;19915;-53
2021/04/19 07:57:26;;;;;;;;;;;;;;;;;;4934207;29;20338;-55
2021/04/19 07:59:51;;;;;;;;;;;;;;;;;;4934650;29;19914;-53
2021/04/19 08:02:16;;;;;;;;;;;;;;;;;;4934594;29;19937;-55
2021/04/19 08:04:42;;;;;;;;;;;;;;;;;;4934751;29;19919;-54
2021/04/19 08:07:07;;;;;;;;;;;;;;;;;;4934622;29;20312;-57
2021/04/19 08:09:32;;;;;;;;;;;;;;;;;;4933296;29;20363;-55
2021/04/19 08:11:57;;;;;;;;;;;;;;;;;;4939819;29;20046;-52
2021/04/19 08:14:23;;;;;;;;;;;;;;;;;;4948319;29;19911;-50
2021/04/19 08:16:48;;;;;;;;;;;;;;;;;;4952642;29;19910;-50
2021/04/19 08:19:13;;;;;;;;;;;;;;;;;;4941765;29;19906;-53
2021/04/19 08:21:38;;;;;;;;;;;;;;;;;;4941348;29;19911;-50
2021/04/19 08:24:04;;;;;;;;;;;;;;;;;;4940649;29;19999;-50
2021/04/19 08:26:29;;;;;;;;;;;;;;;;;;4941569;29;20375;-50
2021/04/19 08:28:54;;;;;;;;;;;;;;;;;;4940251;29;20423;-52
2021/04/19 08:31:19;;;;;;;;;;;;;;;;;;4939974;29;19910;-56
2021/04/19 08:33:44;;;;;;;;;;;;;;;;;;4939529;29;19911;-50
2021/04/19 08:36:10;;;;;;;;;;;;;;;;;;4940012;29;19918;-52
2021/04/19 08:38:35;;;;;;;;;;;;;;;;;;4938642;29;19917;-51
2021/04/19 08:41:00;;;;;;;;;;;;;;;;;;4938184;29;20021;-56
2021/04/19 08:43:26;;;;;;;;;;;;;;;;;;4935825;29;19917;-54
2021/04/19 08:45:51;;;;;;;;;;;;;;;;;;4938016;29;19923;-55
2021/04/19 08:48:16;;;;;;;;;;;;;;;;;;4937801;29;19949;-52
2021/04/19 08:50:41;;;;;;;;;;;;;;;;;;4938058;29;19942;-55
2021/04/19 08:53:07;;;;;;;;;;;;;;;;;;4937216;29;19911;-54
2021/04/19 08:55:32;;;;;;;;;;;;;;;;;;4937720;29;19957;-55
2021/04/19 08:57:59;;;;;;;;;;;;;;;;;;4936071;29;20347;-54
2021/04/19 09:00:25;;;;;;;;;;;;;;;;;;4937954;29;19918;-53
2021/04/19 09:02:50;;;;;;;;;;;;;;;;;;4937785;29;19911;-56
2021/04/19 09:05:16;;;;;;;;;;;;;;;;;;4937197;29;19918;-55
2021/04/19 09:07:41;;;;;;;;;;;;;;;;;;4937399;29;19910;-51
2021/04/19 09:10:06;;;;;;;;;;;;;;;;;;4937522;29;19915;-54
2021/04/19 09:12:31;;;;;;;;;;;;;;;;;;4936833;29;19994;-53
2021/04/19 09:14:57;;;;;;;;;;;;;;;;;;4937388;29;19998;-54
2021/04/19 09:17:22;;;;;;;;;;;;;;;;;;4936955;29;20347;-51
2021/04/19 09:19:47;;;;;;;;;;;;;;;;;;4937489;29;20260;-52
2021/04/19 09:22:12;;;;;;;;;;;;;;;;;;4936962;29;20330;-55
2021/04/19 09:24:38;;;;;;;;;;;;;;;;;;4936062;29;20319;-53
2021/04/19 09:27:03;;;;;;;;;;;;;;;;;;4935424;29;19919;-54
2021/04/19 09:29:28;;;;;;;;;;;;;;;;;;4936945;29;19906;-52
2021/04/19 09:31:53;;;;;;;;;;;;;;;;;;4937046;29;19914;-54
2021/04/19 09:34:18;;;;;;;;;;;;;;;;;;4936969;29;20299;-54
2021/04/19 09:36:44;;;;;;;;;;;;;;;;;;4936255;29;20442;-53
2021/04/19 09:39:09;;;;;;;;;;;;;;;;;;4936991;29;20003;-52
2021/04/19 09:41:34;;;;;;;;;;;;;;;;;;4935856;29;20280;-53
2021/04/19 09:43:59;;;;;;;;;;;;;;;;;;4937050;29;20279;-54
2021/04/19 09:46:25;;;;;;;;;;;;;;;;;;4935464;29;19937;-55
2021/04/19 09:48:50;;;;;;;;;;;;;;;;;;4935243;29;19917;-55
2021/04/19 09:51:18;;;;;;;;;;;;;;;;;;4936544;29;19906;-56
2021/04/19 09:53:44;;;;;;;;;;;;;;;;;;4936340;29;19939;-55
2021/04/19 09:56:09;;;;;;;;;;;;;;;;;;4936315;29;19911;-54
2021/04/19 09:58:34;;;;;;;;;;;;;;;;;;4936068;29;20357;-54
2021/04/19 10:00:59;;;;;;;;;;;;;;;;;;4936269;29;19911;-54
2021/04/19 10:03:25;;;;;;;;;;;;;;;;;;4935979;29;19910;-52
2021/04/19 10:05:50;;;;;;;;;;;;;;;;;;4936205;29;19923;-54
2021/04/19 10:08:15;;;;;;;;;;;;;;;;;;4935693;29;19994;-54
2021/04/19 10:10:40;;;;;;;;;;;;;;;;;;4936181;29;19961;-54
2021/04/19 10:13:05;;;;;;;;;;;;;;;;;;4934169;29;20001;-55
2021/04/19 10:15:31;;;;;;;;;;;;;;;;;;4936001;29;19915;-55
2021/04/19 10:17:58;;;;;;;;;;;;;;;;;;4935964;29;20224;-55
2021/04/19 10:20:24;;;;;;;;;;;;;;;;;;4935642;29;19911;-55
2021/04/19 10:22:49;;;;;;;;;;;;;;;;;;4935319;29;19958;-54
2021/04/19 10:25:15;;;;;;;;;;;;;;;;;;4919858;29;19918;-55
2021/04/19 10:27:40;;;;;;;;;;;;;;;;;;4916940;29;19970;-55
2021/04/19 10:30:05;;;;;;;;;;;;;;;;;;4931501;29;19917;-56
2021/04/19 10:32:31;;;;;;;;;;;;;;;;;;4930847;29;20398;-55
2021/04/19 10:34:56;;;;;;;;;;;;;;;;;;4915530;29;20324;-54
2021/04/19 10:37:21;;;;;;;;;;;;;;;;;;4916687;29;19986;-54
2021/04/19 10:39:46;;;;;;;;;;;;;;;;;;4914775;29;19957;-54
2021/04/19 10:42:12;;;;;;;;;;;;;;;;;;4916764;29;19918;-57
2021/04/19 10:44:37;;;;;;;;;;;;;;;;;;4915247;29;19915;-52
2021/04/19 10:47:02;;;;;;;;;;;;;;;;;;4916177;29;20006;-54
2021/04/19 10:49:28;;;;;;;;;;;;;;;;;;4916204;29;19918;-54
2021/04/19 10:51:53;;;;;;;;;;;;;;;;;;4916125;29;20259;-55
2021/04/19 10:54:18;;;;;;;;;;;;;;;;;;4915027;29;19918;-56
2021/04/19 10:56:44;;;;;;;;;;;;;;;;;;4921310;29;20243;-56
2021/04/19 10:59:09;;;;;;;;;;;;;;;;;;4935634;29;19949;-56
2021/04/19 11:01:34;;;;;;;;;;;;;;;;;;4935492;29;19946;-55
2021/04/19 11:03:59;;;;;;;;;;;;;;;;;;4933325;29;19954;-54
2021/04/19 11:06:25;;;;;;;;;;;;;;;;;;4934389;29;20259;-53
2021/04/19 11:08:50;;;;;;;;;;;;;;;;;;4933369;29;19968;-54
2021/04/19 11:11:15;;;;;;;;;;;;;;;;;;4935196;29;19958;-54
2021/04/19 11:13:40;;;;;;;;;;;;;;;;;;4935203;29;19966;-54
2021/04/19 11:16:06;;;;;;;;;;;;;;;;;;4935202;29;20382;-55
2021/04/19 11:18:31;;;;;;;;;;;;;;;;;;4934297;29;20381;-54
2021/04/19 11:20:56;;;;;;;;;;;;;;;;;;4934441;29;19911;-54
2021/04/19 11:23:21;;;;;;;;;;;;;;;;;;4933658;29;19969;-53
2021/04/19 11:25:47;;;;;;;;;;;;;;;;;;4934268;29;20009;-55
2021/04/19 11:28:12;;;;;;;;;;;;;;;;;;4935048;29;19918;-55
2021/04/19 11:30:37;;;;;;;;;;;;;;;;;;4934725;29;20013;-53
2021/04/19 11:33:02;;;;;;;;;;;;;;;;;;4949225;29;19954;-54
2021/04/19 11:35:29;;;;;;;;;;;;;;;;;;4933205;29;19910;-55
2021/04/19 11:37:54;;;;;;;;;;;;;;;;;;4933860;29;19922;-55
2021/04/19 11:40:20;;;;;;;;;;;;;;;;;;4934283;29;19910;-56
2021/04/19 11:42:45;;;;;;;;;;;;;;;;;;4916604;29;19933;-56
2021/04/19 11:45:10;;;;;;;;;;;;;;;;;;4934815;29;19929;-54
2021/04/19 11:47:35;;;;;;;;;;;;;;;;;;4934282;29;19926;-55
2021/04/19 11:50:00;;;;;;;;;;;;;;;;;;4935033;29;20435;-53
2021/04/19 11:52:26;;;;;;;;;;;;;;;;;;4937423;29;19911;-56
2021/04/19 11:54:51;;;;;;;;;;;;;;;;;;4936676;29;19921;-54
2021/04/19 11:57:16;;;;;;;;;;;;;;;;;;4938034;29;19918;-55
2021/04/19 11:59:41;;;;;;;;;;;;;;;;;;4936801;29;19915;-54
2021/04/19 12:02:07;;;;;;;;;;;;;;;;;;4938098;29;20327;-56
2021/04/19 12:04:32;;;;;;;;;;;;;;;;;;4937080;29;19969;-55
2021/04/19 12:06:57;;;;;;;;;;;;;;;;;;4937674;29;20001;-53
2021/04/19 12:09:23;;;;;;;;;;;;;;;;;;4936742;29;19911;-52
2021/04/19 12:11:48;;;;;;;;;;;;;;;;;;4938172;29;20418;-55
2021/04/19 12:14:13;;;;;;;;;;;;;;;;;;4937677;29;19946;-56
2021/04/19 12:16:38;;;;;;;;;;;;;;;;;;4936459;29;20427;-54
2021/04/19 12:19:03;;;;;;;;;;;;;;;;;;4938078;29;19922;-54
2021/04/19 12:21:29;;;;;;;;;;;;;;;;;;4937666;29;19910;-54
2021/04/19 12:23:54;;;;;;;;;;;;;;;;;;4937664;29;19950;-56
2021/04/19 12:26:19;;;;;;;;;;;;;;;;;;4936838;29;19933;-55
2021/04/19 12:28:44;;;;;;;;;;;;;;;;;;4936079;29;19921;-56
2021/04/19 12:31:10;;;;;;;;;;;;;;;;;;4937942;29;20045;-54
2021/04/19 12:33:35;;;;;;;;;;;;;;;;;;4937494;29;19919;-54
2021/04/19 12:36:00;;;;;;;;;;;;;;;;;;4936549;29;20343;-54
2021/04/19 12:38:26;;;;;;;;;;;;;;;;;;4937560;29;19918;-55
2021/04/19 12:40:51;;;;;;;;;;;;;;;;;;4938046;29;19918;-53
2021/04/19 12:43:17;;;;;;;;;;;;;;;;;;4938204;29;19911;-54
2021/04/19 12:45:44;;;;;;;;;;;;;;;;;;4937664;29;20371;-55
2021/04/19 12:48:10;;;;;;;;;;;;;;;;;;4938613;29;19965;-55
2021/04/19 12:50:36;;;;;;;;;;;;;;;;;;4938494;29;19917;-53
2021/04/19 12:53:01;;;;;;;;;;;;;;;;;;4938004;29;19950;-54
2021/04/19 12:55:26;;;;;;;;;;;;;;;;;;4920787;29;19911;-56
2021/04/19 12:57:51;;;;;;;;;;;;;;;;;;4937405;29;20264;-54
2021/04/19 13:00:16;;;;;;;;;;;;;;;;;;4937596;29;20433;-54
2021/04/19 13:02:42;;;;;;;;;;;;;;;;;;4937118;29;19911;-53
2021/04/19 13:05:07;;;;;;;;;;;;;;;;;;4937455;29;19929;-54
2021/04/19 13:07:32;;;;;;;;;;;;;;;;;;4936569;29;19926;-52
2021/04/19 13:09:57;;;;;;;;;;;;;;;;;;4937654;29;19915;-55
2021/04/19 13:12:22;;;;;;;;;;;;;;;;;;4936113;29;20283;-55
2021/04/19 13:14:48;;;;;;;;;;;;;;;;;;4936559;29;19998;-56
2021/04/19 13:17:13;;;;;;;;;;;;;;;;;;4937222;29;19997;-57
2021/04/19 13:19:39;;;;;;;;;;;;;;;;;;4937210;29;19961;-55
2021/04/19 13:22:04;;;;;;;;;;;;;;;;;;4936307;29;19918;-53
2021/04/19 13:24:29;;;;;;;;;;;;;;;;;;4937044;29;19918;-55
2021/04/19 13:26:55;;;;;;;;;;;;;;;;;;4936697;29;20115;-54
2021/04/19 13:29:20;;;;;;;;;;;;;;;;;;4936936;29;19961;-52
2021/04/19 13:31:48;;;;;;;;;;;;;;;;;;4936682;29;19919;-52
2021/04/19 13:34:13;;;;;;;;;;;;;;;;;;4935641;29;19906;-54
2021/04/19 13:36:38;;;;;;;;;;;;;;;;;;4935779;29;20339;-56
2021/04/19 13:39:04;;;;;;;;;;;;;;;;;;4935458;29;20001;-55
2021/04/19 13:41:30;;;;;;;;;;;;;;;;;;4936925;29;20379;-55
2021/04/19 13:43:57;;;;;;;;;;;;;;;;;;4936565;29;19922;-55
2021/04/19 13:46:22;;;;;;;;;;;;;;;;;;4936326;29;20432;-56
2021/04/19 13:48:47;;;;;;;;;;;;;;;;;;4936493;29;19953;-52
2021/04/19 13:51:12;;;;;;;;;;;;;;;;;;4937478;29;20356;-54
2021/04/19 13:53:38;;;;;;;;;;;;;;;;;;4942049;29;20382;-53
2021/04/19 13:56:07;;;;;;;;;;;;;;;;;;4955056;29;19911;-55
2021/04/19 13:58:32;;;;;;;;;;;;;;;;;;4949614;29;19910;-55
2021/04/19 14:00:58;;;;;;;;;;;;;;;;;;4935967;29;19958;-56
2021/04/19 14:03:23;;;;;;;;;;;;;;;;;;4936629;29;19915;-55
2021/04/19 14:05:48;;;;;;;;;;;;;;;;;;4937469;29;19919;-56
2021/04/19 14:08:14;;;;;;;;;;;;;;;;;;4944606;29;19918;-55
2021/04/19 14:10:39;;;;;;;;;;;;;;;;;;4947425;29;19930;-56
2021/04/19 14:13:06;;;;;;;;;;;;;;;;;;4939182;29;20017;-56
2021/04/19 14:15:31;;;;;;;;;;;;;;;;;;4934957;29;19997;-55
2021/04/19 14:17:57;;;;;;;;;;;;;;;;;;4934888;29;20415;-52
2021/04/19 14:20:22;;;;;;;;;;;;;;;;;;4937971;29;19914;-56
2021/04/19 14:22:47;;;;;;;;;;;;;;;;;;4936260;29;19918;-52
2021/04/19 14:25:12;;;;;;;;;;;;;;;;;;4935558;29;19966;-56
2021/04/19 14:27:38;;;;;;;;;;;;;;;;;;4936169;29;19936;-54
2021/04/19 14:30:03;;;;;;;;;;;;;;;;;;4935407;29;19918;-55
2021/04/19 14:32:28;;;;;;;;;;;;;;;;;;4934478;29;19915;-52
2021/04/19 14:34:53;;;;;;;;;;;;;;;;;;4935253;29;19918;-56
2021/04/19 14:37:20;;;;;;;;;;;;;;;;;;4935273;29;19918;-55
2021/04/19 14:39:45;;;;;;;;;;;;;;;;;;4936154;29;19910;-55
2021/04/19 14:42:12;;;;;;;;;;;;;;;;;;4937648;29;20145;-55
2021/04/19 14:44:37;;;;;;;;;;;;;;;;;;4935670;29;19921;-54
2021/04/19 14:47:03;;;;;;;;;;;;;;;;;;4934780;29;19986;-53
2021/04/19 14:49:28;;;;;;;;;;;;;;;;;;4934315;29;19910;-53
2021/04/19 14:51:53;;;;;;;;;;;;;;;;;;4934676;29;20014;-57
2021/04/19 14:54:18;;;;;;;;;;;;;;;;;;4935668;29;19911;-54
2021/04/19 14:56:44;;;;;;;;;;;;;;;;;;4934951;29;19951;-53
2021/04/19 14:59:09;;;;;;;;;;;;;;;;;;4935652;29;19979;-55
2021/04/19 15:01:34;;;;;;;;;;;;;;;;;;4935341;29;20303;-55
2021/04/19 15:03:59;;;;;;;;;;;;;;;;;;4934899;29;20343;-52
2021/04/19 15:06:25;;;;;;;;;;;;;;;;;;4933976;29;19930;-55
2021/04/19 15:08:50;;;;;;;;;;;;;;;;;;4935292;29;19966;-54
2021/04/19 15:11:15;;;;;;;;;;;;;;;;;;4935259;29;19910;-55
2021/04/19 15:13:40;;;;;;;;;;;;;;;;;;4935665;29;19945;-56
2021/04/19 15:16:05;;;;;;;;;;;;;;;;;;4934589;29;19998;-55
2021/04/19 15:18:31;;;;;;;;;;;;;;;;;;4935293;29;20086;-55
2021/04/19 15:20:57;;;;;;;;;;;;;;;;;;4934030;29;19958;-54
2021/04/19 15:23:22;;;;;;;;;;;;;;;;;;4935075;29;20363;-55
2021/04/19 15:25:48;;;;;;;;;;;;;;;;;;4933957;29;19925;-53
2021/04/19 15:28:13;;;;;;;;;;;;;;;;;;4935430;29;20345;-55
2021/04/19 15:30:38;;;;;;;;;;;;;;;;;;4934565;29;19910;-55
2021/04/19 15:33:03;;;;;;;;;;;;;;;;;;4935087;29;19914;-56
2021/04/19 15:35:29;;;;;;;;;;;;;;;;;;4934514;29;19933;-53
2021/04/19 15:37:54;;;;;;;;;;;;;;;;;;4918121;29;19910;-55
2021/04/19 15:40:19;;;;;;;;;;;;;;;;;;4933903;29;19910;-55
2021/04/19 15:42:44;;;;;;;;;;;;;;;;;;4935190;29;19994;-54
2021/04/19 15:45:10;;;;;;;;;;;;;;;;;;4934280;29;19978;-54
2021/04/19 15:47:35;;;;;;;;;;;;;;;;;;4934742;29;20002;-52
2021/04/19 15:50:00;;;;;;;;;;;;;;;;;;4932904;29;20342;-54
2021/04/19 15:52:25;;;;;;;;;;;;;;;;;;4935131;29;20360;-55
2021/04/19 15:54:51;;;;;;;;;;;;;;;;;;4922540;29;19911;-54
2021/04/19 15:57:16;;;;;;;;;;;;;;;;;;4915773;29;20284;-52
2021/04/19 15:59:41;;;;;;;;;;;;;;;;;;4916304;29;19957;-53
2021/04/19 16:02:06;;;;;;;;;;;;;;;;;;4915220;29;19953;-54
2021/04/19 16:04:32;;;;;;;;;;;;;;;;;;4925731;29;20239;-54
2021/04/19 16:06:57;;;;;;;;;;;;;;;;;;4933444;29;19918;-55
2021/04/19 16:09:22;;;;;;;;;;;;;;;;;;4934173;29;19949;-55
2021/04/19 16:11:47;;;;;;;;;;;;;;;;;;4929181;29;19911;-55
2021/04/19 16:14:13;;;;;;;;;;;;;;;;;;4912716;29;19911;-51
2021/04/19 16:16:38;;;;;;;;;;;;;;;;;;4914053;29;19918;-52
2021/04/19 16:19:04;;;;;;;;;;;;;;;;;;4913342;29;19907;-53
2021/04/19 16:21:29;;;;;;;;;;;;;;;;;;4915604;29;19918;-52
2021/04/19 16:23:55;;;;;;;;;;;;;;;;;;4914258;29;20039;-51
2021/04/19 16:26:20;;;;;;;;;;;;;;;;;;4915554;29;20364;-53
2021/04/19 16:28:45;;;;;;;;;;;;;;;;;;4915072;29;19911;-54
2021/04/19 16:31:10;;;;;;;;;;;;;;;;;;4915201;29;19911;-55
2021/04/19 16:33:36;;;;;;;;;;;;;;;;;;4915885;29;19920;-54
2021/04/19 16:36:01;;;;;;;;;;;;;;;;;;4925098;29;20300;-53